createdAt,value
2022-12-27T00:03:46.768Z,9.80
2022-12-27T00:08:49.855Z,9.90
2022-12-27T00:13:52.942Z,9.70
2022-12-27T00:18:57.328Z,9.80
2022-12-27T00:24:01.770Z,9.70
2022-12-27T00:29:04.869Z,9.80
2022-12-27T00:34:09.156Z,9.90
2022-12-27T00:39:12.860Z,9.80
2022-12-27T00:44:15.875Z,9.90
2022-12-27T00:49:20.100Z,9.80
2022-12-27T00:54:23.009Z,9.60
2022-12-27T00:59:25.936Z,9.60
2022-12-27T01:04:30.407Z,9.70
2022-12-27T01:09:33.314Z,9.50
2022-12-27T01:14:36.421Z,9.40
2022-12-27T01:19:40.773Z,9.20
2022-12-27T01:24:43.666Z,9.20
2022-12-27T01:29:46.638Z,9.10
2022-12-27T01:34:51.396Z,9.00
2022-12-27T01:39:54.315Z,8.90
2022-12-27T01:44:59.512Z,9.00
2022-12-27T01:50:09.712Z,8.80
2022-12-27T01:55:20.109Z,8.70
2022-12-27T02:00:23.348Z,8.70
2022-12-27T02:05:28.793Z,8.70
2022-12-27T02:10:32.605Z,8.70
2022-12-27T02:15:35.884Z,8.60
2022-12-27T02:20:59.716Z,8.60
2022-12-27T02:26:28.903Z,8.40
2022-12-27T02:31:41.187Z,8.10
2022-12-27T02:36:47.078Z,8.20
2022-12-27T02:42:22.954Z,8.10
2022-12-27T02:47:42.011Z,8.20
2022-12-27T02:53:05.297Z,8.40
2022-12-27T02:58:24.923Z,8.30
2022-12-27T03:03:52.062Z,8.20
2022-12-27T03:09:40.029Z,7.90
2022-12-27T03:15:05.916Z,7.90
2022-12-27T03:20:31.808Z,7.90
2022-12-27T03:25:37.145Z,7.90
2022-12-27T03:30:59.224Z,7.80
2022-12-27T03:36:23.710Z,7.70
2022-12-27T03:41:48.140Z,7.70
2022-12-27T03:46:55.430Z,7.70
2022-12-27T03:52:06.963Z,7.80
2022-12-27T03:57:12.470Z,7.50
2022-12-27T04:02:15.860Z,7.50
2022-12-27T04:07:20.398Z,7.60
2022-12-27T04:12:41.766Z,7.80
2022-12-27T04:18:02.363Z,7.80
2022-12-27T04:23:24.404Z,7.90
2022-12-27T04:28:44.664Z,7.70
2022-12-27T04:34:04.957Z,7.60
2022-12-27T04:39:09.571Z,7.70
2022-12-27T04:44:29.821Z,7.60
2022-12-27T04:49:50.630Z,7.50
2022-12-27T04:55:31.070Z,7.40
2022-12-27T05:00:53.013Z,7.40
2022-12-27T05:05:56.192Z,7.50
2022-12-27T05:11:16.961Z,7.60
2022-12-27T05:16:21.334Z,7.40
2022-12-27T05:21:24.640Z,7.40
2022-12-27T05:26:30.339Z,7.50
2022-12-27T05:31:35.121Z,7.40
2022-12-27T05:36:38.110Z,7.40
2022-12-27T05:41:40.978Z,7.40
2022-12-27T05:46:45.314Z,7.40
2022-12-27T05:51:48.358Z,7.30
2022-12-27T05:56:51.299Z,7.40
2022-12-27T06:01:55.693Z,7.50
2022-12-27T06:06:59.239Z,7.30
2022-12-27T06:12:05.514Z,7.40
2022-12-27T06:17:09.785Z,7.30
2022-12-27T06:22:12.767Z,7.20
2022-12-27T06:27:15.828Z,7.10
2022-12-27T06:32:20.223Z,7.20
2022-12-27T06:37:23.380Z,7.20
2022-12-27T06:42:26.301Z,7.20
2022-12-27T06:47:30.668Z,7.20
2022-12-27T06:52:33.576Z,7.20
2022-12-27T06:57:36.517Z,7.30
2022-12-27T07:02:41.152Z,7.30
2022-12-27T07:07:44.080Z,7.40
2022-12-27T07:12:47.409Z,7.50
2022-12-27T07:17:51.686Z,7.50
2022-12-27T07:23:00.140Z,7.40
2022-12-27T07:28:03.154Z,7.40
2022-12-27T07:33:13.608Z,7.40
2022-12-27T07:38:16.480Z,7.40
2022-12-27T07:43:19.468Z,7.30
2022-12-27T07:48:23.740Z,7.40
2022-12-27T07:53:26.679Z,7.50
2022-12-27T07:58:29.549Z,7.60
2022-12-27T08:03:34.437Z,7.50
2022-12-27T08:08:40.111Z,7.60
2022-12-27T08:13:43.301Z,7.50
2022-12-27T08:18:48.091Z,7.60
2022-12-27T08:23:51.576Z,7.60
2022-12-27T08:28:54.643Z,7.60
2022-12-27T08:33:59.064Z,7.80
2022-12-27T08:39:02.018Z,7.70
2022-12-27T08:44:05.026Z,7.80
2022-12-27T08:49:10.493Z,7.80
2022-12-27T08:54:25.033Z,7.90
2022-12-27T08:59:27.979Z,8.00
2022-12-27T09:04:32.289Z,8.00
2022-12-27T09:09:35.252Z,8.10
2022-12-27T09:14:38.223Z,8.10
2022-12-27T09:19:42.471Z,8.30
2022-12-27T09:24:45.359Z,8.40
2022-12-27T09:29:48.766Z,8.40
2022-12-27T09:34:53.176Z,8.50
2022-12-27T09:39:57.047Z,8.60
2022-12-27T09:45:13.076Z,8.80
2022-12-27T09:50:24.984Z,8.80
2022-12-27T09:55:37.886Z,8.90
2022-12-27T10:01:30.071Z,8.90
2022-12-27T10:06:53.785Z,9.00
2022-12-27T10:12:03.349Z,9.00
2022-12-27T10:17:14.127Z,9.00
2022-12-27T10:22:30.758Z,9.10
2022-12-27T10:27:34.058Z,9.10
2022-12-27T10:32:37.279Z,9.20
2022-12-27T10:37:56.639Z,9.30
2022-12-27T10:43:04.915Z,9.30
2022-12-27T10:48:22.136Z,9.40
2022-12-27T10:54:23.414Z,9.40
2022-12-27T11:06:40.326Z,9.60
2022-12-27T11:11:47.158Z,9.70
2022-12-27T11:16:50.816Z,9.70
2022-12-27T11:21:58.887Z,9.70
2022-12-27T11:27:04.366Z,9.80
2022-12-27T11:32:15.603Z,9.90
2022-12-27T11:37:34.870Z,9.90
2022-12-27T11:42:44.160Z,9.90
2022-12-27T11:48:06.360Z,9.90
2022-12-27T11:53:38.063Z,10.00
2022-12-27T11:59:05.252Z,10.00
2022-12-27T12:04:55.773Z,10.10
2022-12-27T12:10:31.610Z,10.10
2022-12-27T12:16:15.542Z,10.20
2022-12-27T12:21:41.066Z,10.20
2022-12-27T12:26:59.183Z,10.20
2022-12-27T12:32:30.020Z,10.20
2022-12-27T12:38:03.615Z,10.30
2022-12-27T12:43:22.242Z,10.30
2022-12-27T12:48:49.378Z,10.30
2022-12-27T12:54:06.717Z,10.40
2022-12-27T12:59:34.676Z,10.40
2022-12-27T13:05:20.519Z,10.40
2022-12-27T13:11:05.613Z,10.40
2022-12-27T13:16:25.793Z,10.30
2022-12-27T13:21:48.296Z,10.30
2022-12-27T13:27:13.116Z,10.40
2022-12-27T13:32:26.028Z,10.30
2022-12-27T13:37:41.504Z,10.30
2022-12-27T13:43:20.272Z,10.40
2022-12-27T13:48:45.197Z,10.40
2022-12-27T13:54:17.021Z,10.30
2022-12-27T13:59:51.881Z,10.40
2022-12-27T14:05:22.747Z,10.20
2022-12-27T14:10:36.203Z,10.20
2022-12-27T14:16:05.625Z,10.20
2022-12-27T14:21:36.275Z,10.20
2022-12-27T14:27:03.238Z,10.20
2022-12-27T14:32:50.041Z,10.10
2022-12-27T14:38:40.755Z,10.10
2022-12-27T14:44:11.497Z,10.00
2022-12-27T14:49:59.603Z,10.00
2022-12-27T14:55:36.790Z,10.10
2022-12-27T15:01:03.054Z,10.10
2022-12-27T15:06:14.589Z,10.00
2022-12-27T15:11:34.951Z,10.00
2022-12-27T15:16:49.284Z,10.00
2022-12-27T15:22:04.780Z,10.10
2022-12-27T15:27:19.646Z,10.00
2022-12-27T15:32:37.042Z,9.80
2022-12-27T15:38:05.132Z,9.80
2022-12-27T15:43:23.061Z,9.80
2022-12-27T15:48:54.028Z,9.70
2022-12-27T15:54:29.713Z,9.60
2022-12-27T15:59:46.851Z,9.70
2022-12-27T16:05:35.409Z,9.60
2022-12-27T16:10:56.305Z,9.60
2022-12-27T16:16:02.142Z,9.60
2022-12-27T16:21:07.589Z,9.50
2022-12-27T16:26:20.367Z,9.40
2022-12-27T16:31:45.412Z,9.50
2022-12-27T16:37:00.892Z,9.40
2022-12-27T16:42:33.873Z,9.40
2022-12-27T16:48:17.487Z,9.40
2022-12-27T16:53:54.436Z,9.30
2022-12-27T16:58:59.785Z,9.30
2022-12-27T17:04:04.744Z,9.20
2022-12-27T17:09:45.415Z,9.10
2022-12-27T17:14:53.605Z,9.00
2022-12-27T17:20:02.654Z,9.10
2022-12-27T17:25:06.696Z,9.00
2022-12-27T17:30:19.741Z,9.00
2022-12-27T17:35:31.810Z,9.00
2022-12-27T17:40:42.537Z,8.90
2022-12-27T17:46:02.479Z,8.90
2022-12-27T17:51:15.748Z,9.00
2022-12-27T17:56:39.214Z,8.90
2022-12-27T18:01:46.754Z,8.80
2022-12-27T18:06:56.029Z,8.90
2022-12-27T18:11:59.127Z,8.90
2022-12-27T18:17:02.547Z,8.90
2022-12-27T18:22:19.047Z,9.00
2022-12-27T18:27:26.267Z,8.90
2022-12-27T18:32:29.612Z,8.90
2022-12-27T18:37:36.341Z,8.80
2022-12-27T18:42:44.724Z,8.80
2022-12-27T18:47:49.623Z,8.80
2022-12-27T18:53:02.790Z,8.80
2022-12-27T18:58:07.911Z,8.70
2022-12-27T19:03:18.219Z,8.80
2022-12-27T19:08:27.845Z,8.80
2022-12-27T19:13:40.941Z,8.80
2022-12-27T19:18:43.951Z,8.70
2022-12-27T19:24:21.370Z,8.70
2022-12-27T19:29:32.618Z,8.70
2022-12-27T19:34:44.747Z,8.70
2022-12-27T19:39:50.099Z,8.80
2022-12-27T19:44:53.224Z,8.80
2022-12-27T19:49:59.945Z,8.80
2022-12-27T19:55:07.829Z,8.80
2022-12-27T20:00:19.046Z,8.80
2022-12-27T20:06:11.512Z,8.80
2022-12-27T20:10:49.924Z,8.80
2022-12-27T20:16:02.164Z,8.80
2022-12-27T20:21:18.383Z,8.80
2022-12-27T20:26:24.832Z,8.80
2022-12-27T20:31:28.004Z,8.80
2022-12-27T20:36:30.984Z,8.80
2022-12-27T20:41:36.682Z,8.80
2022-12-27T20:46:41.676Z,8.80
2022-12-27T20:51:44.694Z,8.80
2022-12-27T20:56:49.516Z,8.70
2022-12-27T21:01:56.949Z,8.70
2022-12-27T21:07:01.415Z,8.70
2022-12-27T21:12:06.095Z,8.80
2022-12-27T21:17:09.249Z,8.80
2022-12-27T21:22:12.204Z,8.80
2022-12-27T21:27:16.432Z,8.80
2022-12-27T21:32:26.328Z,8.80
2022-12-27T21:37:43.280Z,8.80
2022-12-27T21:42:54.812Z,8.80
2022-12-27T21:47:57.637Z,8.80
2022-12-27T21:53:07.501Z,8.80
2022-12-27T21:58:12.523Z,9.40
2022-12-27T22:03:16.591Z,9.20
2022-12-27T22:08:19.666Z,9.00
2022-12-27T22:13:24.047Z,9.10
2022-12-27T22:18:26.987Z,9.00
2022-12-27T22:23:31.451Z,9.00
2022-12-27T22:28:35.658Z,9.00
2022-12-27T22:33:42.004Z,9.00
2022-12-27T22:38:49.476Z,8.90
2022-12-27T22:43:55.781Z,8.90
2022-12-27T22:49:00.480Z,8.90
2022-12-27T22:54:04.754Z,8.80
2022-12-27T22:59:09.747Z,8.90
2022-12-27T23:04:14.301Z,9.00
2022-12-27T23:09:17.219Z,9.00
2022-12-27T23:14:21.419Z,9.00
2022-12-27T23:19:25.668Z,9.00
2022-12-27T23:24:28.517Z,9.00
2022-12-27T23:29:32.720Z,8.90
2022-12-27T23:34:35.564Z,9.00
2022-12-27T23:39:38.374Z,9.00
2022-12-27T23:44:42.557Z,9.10
2022-12-27T23:49:45.432Z,9.10
2022-12-27T23:54:48.419Z,9.10
2022-12-27T23:59:54.559Z,9.10
